createdAt,value
2023-05-01T00:01:56.309Z,61.45
2023-05-01T00:04:23.711Z,63.70
2023-05-01T00:06:50.917Z,63.29
2023-05-01T00:09:18.491Z,63.08
2023-05-01T00:11:46.236Z,63.71
2023-05-01T00:14:13.315Z,63.31
2023-05-01T00:16:40.540Z,63.51
2023-05-01T00:19:08.253Z,63.75
2023-05-01T00:21:35.476Z,63.55
2023-05-01T00:24:02.617Z,62.70
2023-05-01T00:26:31.345Z,62.36
2023-05-01T00:28:58.716Z,62.17
2023-05-01T00:31:26.088Z,63.53
2023-05-01T00:33:53.795Z,62.63
2023-05-01T00:36:21.232Z,62.97
2023-05-01T00:38:48.374Z,62.55
2023-05-01T00:41:15.535Z,62.85
2023-05-01T00:43:42.798Z,62.09
2023-05-01T00:46:12.253Z,60.86
2023-05-01T00:48:39.367Z,60.79
2023-05-01T00:51:08.784Z,62.80
2023-05-01T00:53:36.026Z,62.71
2023-05-01T00:56:06.165Z,63.12
2023-05-01T00:58:34.973Z,62.26
2023-05-01T01:01:02.849Z,61.71
2023-05-01T01:03:31.310Z,64.66
2023-05-01T01:06:17.677Z,63.57
2023-05-01T01:09:36.340Z,62.93
2023-05-01T01:13:02.341Z,63.47
2023-05-01T01:15:48.669Z,62.66
2023-05-01T01:18:58.119Z,62.80
2023-05-01T01:21:44.725Z,62.61
2023-05-01T01:24:50.954Z,62.92
2023-05-01T01:28:18.448Z,63.58
2023-05-01T01:31:21.753Z,62.80
2023-05-01T01:34:14.243Z,64.66
2023-05-01T01:37:02.719Z,60.71
2023-05-01T01:39:36.810Z,61.86
2023-05-01T01:42:12.866Z,62.26
2023-05-01T01:44:55.497Z,60.48
2023-05-01T01:47:31.972Z,57.91
2023-05-01T01:50:05.430Z,57.59
2023-05-01T01:52:36.301Z,57.03
2023-05-01T01:55:12.326Z,60.53
2023-05-01T01:57:44.880Z,58.09
2023-05-01T02:00:14.125Z,60.28
2023-05-01T02:02:42.892Z,60.95
2023-05-01T02:05:16.465Z,62.44
2023-05-01T02:07:48.733Z,58.98
2023-05-01T02:10:17.969Z,61.72
2023-05-01T02:12:51.299Z,59.01
2023-05-01T02:15:20.309Z,58.32
2023-05-01T02:17:51.186Z,58.35
2023-05-01T02:20:19.975Z,58.21
2023-05-01T02:22:49.296Z,58.46
2023-05-01T02:25:16.791Z,59.67
2023-05-01T02:28:16.119Z,61.16
2023-05-01T02:30:43.437Z,60.00
2023-05-01T02:33:10.947Z,60.32
2023-05-01T02:35:47.274Z,63.33
2023-05-01T02:38:16.173Z,62.48
2023-05-01T02:40:56.950Z,63.74
2023-05-01T02:43:27.707Z,62.62
2023-05-01T02:45:57.209Z,64.54
2023-05-01T02:48:28.885Z,65.12
2023-05-01T02:51:01.159Z,64.57
2023-05-01T02:53:28.295Z,64.06
2023-05-01T02:55:55.525Z,64.04
2023-05-01T02:58:23.543Z,65.47
2023-05-01T03:00:50.798Z,65.21
2023-05-01T03:03:18.012Z,65.12
2023-05-01T03:05:45.165Z,62.72
2023-05-01T03:08:13.409Z,64.79
2023-05-01T03:10:44.286Z,64.75
2023-05-01T03:13:12.102Z,65.01
2023-05-01T03:15:39.483Z,64.45
2023-05-01T03:18:07.028Z,65.72
2023-05-01T03:20:34.324Z,64.33
2023-05-01T03:23:01.610Z,64.97
2023-05-01T03:25:28.682Z,64.55
2023-05-01T03:27:55.843Z,63.61
2023-05-01T03:30:22.929Z,63.89
2023-05-01T03:32:51.697Z,65.25
2023-05-01T03:35:19.153Z,64.56
2023-05-01T03:37:46.370Z,64.97
2023-05-01T03:40:13.799Z,64.60
2023-05-01T03:42:41.132Z,63.89
2023-05-01T03:45:09.325Z,62.68
2023-05-01T03:47:36.440Z,62.59
2023-05-01T03:50:04.709Z,62.26
2023-05-01T03:52:31.814Z,62.75
2023-05-01T03:54:58.833Z,63.87
2023-05-01T03:57:27.427Z,64.27
2023-05-01T03:59:55.200Z,64.48
2023-05-01T04:02:22.729Z,64.52
2023-05-01T04:04:50.484Z,64.70
2023-05-01T04:07:17.681Z,64.86
2023-05-01T04:09:44.792Z,63.99
2023-05-01T04:12:11.910Z,63.86
2023-05-01T04:14:38.941Z,63.78
2023-05-01T04:17:06.108Z,62.79
2023-05-01T04:19:34.767Z,63.57
2023-05-01T04:22:02.296Z,62.21
2023-05-01T04:24:29.456Z,62.32
2023-05-01T04:26:56.567Z,61.84
2023-05-01T04:29:23.877Z,60.35
2023-05-01T04:31:51.048Z,62.14
2023-05-01T04:34:18.111Z,58.85
2023-05-01T04:36:45.161Z,59.03
2023-05-01T04:39:12.251Z,59.42
2023-05-01T04:41:39.283Z,58.92
2023-05-01T04:44:06.313Z,60.54
2023-05-01T04:46:33.506Z,59.52
2023-05-01T04:49:00.600Z,59.33
2023-05-01T04:51:28.975Z,57.26
2023-05-01T04:53:56.001Z,58.25
2023-05-01T04:56:23.191Z,60.53
2023-05-01T04:58:50.433Z,61.40
2023-05-01T05:01:17.566Z,59.64
2023-05-01T05:03:46.600Z,59.32
2023-05-01T05:06:15.225Z,59.81
2023-05-01T05:08:42.974Z,58.47
2023-05-01T05:11:10.055Z,59.67
2023-05-01T05:13:37.127Z,56.94
2023-05-01T05:16:04.767Z,55.66
2023-05-01T05:18:31.894Z,56.41
2023-05-01T05:21:02.765Z,57.33
2023-05-01T05:23:29.839Z,56.50
2023-05-01T05:25:58.480Z,57.87
2023-05-01T05:28:27.388Z,57.08
2023-05-01T05:30:56.229Z,54.23
2023-05-01T05:33:25.003Z,53.59
2023-05-01T05:35:52.724Z,53.82
2023-05-01T05:38:20.305Z,53.90
2023-05-01T05:40:47.364Z,50.83
2023-05-01T05:43:14.489Z,51.33
2023-05-01T05:45:41.641Z,51.58
2023-05-01T05:48:08.984Z,51.45
2023-05-01T05:50:37.474Z,52.25
2023-05-01T05:53:04.540Z,51.46
2023-05-01T05:55:31.585Z,53.11
2023-05-01T05:57:58.656Z,51.80
2023-05-01T06:00:25.766Z,51.89
2023-05-01T06:02:52.998Z,51.73
2023-05-01T06:05:20.544Z,49.60
2023-05-01T06:07:47.898Z,50.54
2023-05-01T06:10:14.948Z,48.78
2023-05-01T06:12:45.140Z,50.31
2023-05-01T06:15:17.039Z,49.44
2023-05-01T06:17:44.244Z,48.11
2023-05-01T06:20:14.141Z,47.75
2023-05-01T06:22:41.176Z,49.18
2023-05-01T06:25:09.736Z,48.09
2023-05-01T06:27:37.378Z,47.58
2023-05-01T06:30:05.285Z,47.79
2023-05-01T06:32:32.355Z,49.24
2023-05-01T06:34:59.553Z,46.37
2023-05-01T06:37:26.644Z,46.89
2023-05-01T06:39:53.888Z,45.86
2023-05-01T06:42:21.781Z,47.91
2023-05-01T06:44:48.846Z,45.89
2023-05-01T06:47:15.978Z,46.69
2023-05-01T06:49:43.669Z,43.43
2023-05-01T06:52:11.856Z,47.27
2023-05-01T06:54:39.037Z,45.24
2023-05-01T06:57:06.112Z,46.01
2023-05-01T06:59:33.135Z,45.35
2023-05-01T07:02:00.254Z,46.40
2023-05-01T07:04:27.371Z,44.92
2023-05-01T07:06:54.473Z,48.00
2023-05-01T07:09:21.788Z,44.10
2023-05-01T07:11:49.473Z,43.53
2023-05-01T07:14:16.680Z,42.35
2023-05-01T07:16:43.800Z,40.36
2023-05-01T07:19:11.901Z,40.52
2023-05-01T07:21:41.065Z,41.69
2023-05-01T07:24:08.121Z,42.06
2023-05-01T07:26:35.165Z,42.29
2023-05-01T07:29:02.271Z,44.30
2023-05-01T07:31:29.379Z,41.70
2023-05-01T07:33:56.725Z,41.05
2023-05-01T07:36:23.972Z,39.65
2023-05-01T07:38:52.403Z,41.68
2023-05-01T07:41:19.467Z,44.58
2023-05-01T07:43:46.538Z,41.82
2023-05-01T07:46:13.668Z,41.29
2023-05-01T07:48:40.889Z,39.55
2023-05-01T07:51:08.025Z,41.26
2023-05-01T07:53:35.388Z,41.99
2023-05-01T07:56:10.135Z,41.04
2023-05-01T07:58:37.834Z,43.02
2023-05-01T08:01:06.627Z,38.13
2023-05-01T08:03:33.911Z,41.32
2023-05-01T08:06:01.464Z,41.21
2023-05-01T08:08:28.671Z,40.41
2023-05-01T08:10:56.178Z,39.55
2023-05-01T08:13:23.320Z,41.31
2023-05-01T08:15:50.635Z,42.07
2023-05-01T08:18:21.097Z,40.55
2023-05-01T08:20:49.402Z,37.46
2023-05-01T08:23:17.773Z,37.11
2023-05-01T08:25:50.875Z,38.12
2023-05-01T08:28:21.076Z,39.39
2023-05-01T08:30:51.543Z,37.75
2023-05-01T08:33:19.324Z,36.27
2023-05-01T08:35:46.732Z,35.68
2023-05-01T08:38:14.035Z,35.00
2023-05-01T08:40:52.634Z,37.70
2023-05-01T08:43:24.133Z,38.32
2023-05-01T08:45:54.673Z,34.69
2023-05-01T08:48:24.784Z,36.07
2023-05-01T08:50:54.478Z,37.88
2023-05-01T08:53:24.008Z,34.32
2023-05-01T08:55:53.623Z,33.99
2023-05-01T08:58:24.446Z,32.88
2023-05-01T09:00:53.732Z,32.59
2023-05-01T09:03:21.441Z,33.98
2023-05-01T09:05:49.528Z,35.95
2023-05-01T09:08:16.656Z,37.06
2023-05-01T09:10:48.183Z,34.61
2023-05-01T09:13:15.371Z,36.64
2023-05-01T09:15:42.635Z,31.22
2023-05-01T09:18:10.142Z,31.76
2023-05-01T09:20:38.012Z,34.05
2023-05-01T09:23:06.460Z,33.97
2023-05-01T09:25:36.372Z,31.40
2023-05-01T09:28:07.094Z,32.83
2023-05-01T09:30:38.078Z,33.69
2023-05-01T09:33:12.734Z,33.42
2023-05-01T09:35:59.818Z,31.50
2023-05-01T09:38:30.277Z,32.19
2023-05-01T09:41:05.552Z,31.21
2023-05-01T09:43:32.725Z,32.03
2023-05-01T09:46:11.936Z,33.38
2023-05-01T09:48:40.123Z,32.52
2023-05-01T09:51:32.889Z,31.46
2023-05-01T09:54:04.831Z,32.51
2023-05-01T09:56:45.980Z,33.58
2023-05-01T09:59:20.328Z,32.26
2023-05-01T10:01:50.052Z,32.28
2023-05-01T10:04:18.277Z,31.89
2023-05-01T10:06:45.651Z,28.45
2023-05-01T10:09:26.417Z,29.59
2023-05-01T10:11:57.648Z,30.77
2023-05-01T10:14:27.098Z,28.75
2023-05-01T10:16:54.441Z,29.25
2023-05-01T10:19:22.072Z,32.10
2023-05-01T10:21:49.424Z,29.09
2023-05-01T10:24:17.355Z,28.62
2023-05-01T10:26:44.952Z,25.86
2023-05-01T10:29:13.232Z,28.38
2023-05-01T10:31:42.526Z,26.54
2023-05-01T10:34:16.499Z,26.83
2023-05-01T10:37:02.692Z,28.55
2023-05-01T10:39:35.771Z,28.96
2023-05-01T10:42:11.335Z,25.90
2023-05-01T10:44:38.988Z,27.73
2023-05-01T10:47:24.927Z,28.31
2023-05-01T10:50:10.450Z,26.68
2023-05-01T10:53:16.983Z,26.82
2023-05-01T10:55:46.898Z,25.85
2023-05-01T10:58:38.648Z,26.60
2023-05-01T11:01:42.927Z,26.56
2023-05-01T11:04:49.367Z,26.52
2023-05-01T11:07:22.369Z,26.05
2023-05-01T11:09:55.513Z,28.21
2023-05-01T11:12:51.443Z,24.68
2023-05-01T11:15:32.113Z,26.21
2023-05-01T11:18:02.551Z,24.11
2023-05-01T11:20:55.900Z,24.56
2023-05-01T11:23:23.786Z,24.81
2023-05-01T11:26:01.226Z,29.92
2023-05-01T11:28:32.179Z,26.62
2023-05-01T11:31:11.541Z,28.30
2023-05-01T11:33:38.674Z,30.27
2023-05-01T11:36:06.503Z,30.17
2023-05-01T11:38:35.238Z,30.73
2023-05-01T11:41:04.371Z,29.18
2023-05-01T11:43:32.435Z,26.96
2023-05-01T11:46:06.159Z,27.45
2023-05-01T11:48:33.989Z,26.00
2023-05-01T11:51:12.903Z,26.96
2023-05-01T11:53:40.017Z,24.90
2023-05-01T11:56:27.050Z,28.72
2023-05-01T11:59:09.673Z,26.71
2023-05-01T12:01:41.043Z,25.35
2023-05-01T12:04:08.855Z,25.55
2023-05-01T12:06:46.990Z,30.17
2023-05-01T12:09:24.357Z,27.25
2023-05-01T12:11:53.504Z,28.43
2023-05-01T12:14:22.140Z,29.40
2023-05-01T12:16:49.704Z,24.73
2023-05-01T12:19:17.999Z,24.96
2023-05-01T12:21:45.711Z,29.53
2023-05-01T12:24:16.216Z,26.99
2023-05-01T12:26:45.711Z,26.22
2023-05-01T12:29:13.248Z,23.95
2023-05-01T12:31:49.588Z,22.69
2023-05-01T12:34:17.031Z,21.37
2023-05-01T12:36:54.711Z,24.44
2023-05-01T12:39:23.555Z,25.92
2023-05-01T12:41:51.660Z,23.56
2023-05-01T12:44:27.746Z,22.68
2023-05-01T12:47:04.421Z,22.98
2023-05-01T12:49:33.851Z,24.81
2023-05-01T12:52:01.853Z,22.60
2023-05-01T12:54:42.386Z,24.59
2023-05-01T12:57:14.786Z,24.62
2023-05-01T12:59:48.084Z,25.29
2023-05-01T13:02:18.096Z,24.44
2023-05-01T13:07:30.041Z,24.84
2023-05-01T13:10:00.096Z,23.10
2023-05-01T13:12:28.511Z,20.87
2023-05-01T13:14:56.407Z,23.61
2023-05-01T13:17:33.028Z,21.02
2023-05-01T13:20:05.623Z,29.48
2023-05-01T13:22:38.098Z,22.68
2023-05-01T13:25:18.486Z,21.15
2023-05-01T13:27:52.298Z,21.25
2023-05-01T13:30:33.231Z,22.15
2023-05-01T13:33:01.858Z,23.36
2023-05-01T13:35:31.701Z,22.33
2023-05-01T13:37:58.903Z,25.21
2023-05-01T13:40:27.736Z,24.04
2023-05-01T13:42:55.014Z,23.88
2023-05-01T13:45:22.620Z,22.25
2023-05-01T13:47:52.144Z,28.40
2023-05-01T13:50:19.854Z,24.09
2023-05-01T13:52:48.392Z,26.45
2023-05-01T13:55:20.787Z,25.10
2023-05-01T13:57:50.894Z,23.03
2023-05-01T14:00:22.437Z,22.61
2023-05-01T14:02:50.160Z,22.21
2023-05-01T14:05:28.865Z,22.28
2023-05-01T14:07:58.602Z,22.31
2023-05-01T14:10:29.558Z,27.01
2023-05-01T14:13:00.405Z,25.63
2023-05-01T14:15:28.812Z,22.68
2023-05-01T14:17:56.066Z,24.79
2023-05-01T14:20:25.847Z,21.26
2023-05-01T14:22:53.539Z,22.32
2023-05-01T14:25:29.946Z,21.15
2023-05-01T14:28:07.067Z,20.42
2023-05-01T14:30:47.167Z,22.17
2023-05-01T14:33:14.667Z,24.87
2023-05-01T14:35:50.801Z,21.23
2023-05-01T14:38:21.500Z,24.62
2023-05-01T14:40:48.787Z,21.03
2023-05-01T14:43:25.921Z,24.41
2023-05-01T14:45:54.927Z,23.66
2023-05-01T14:48:34.777Z,24.31
2023-05-01T14:51:12.871Z,22.98
2023-05-01T14:53:43.818Z,24.91
2023-05-01T14:56:12.084Z,22.62
2023-05-01T14:58:39.584Z,22.40
2023-05-01T15:01:06.769Z,24.92
2023-05-01T15:03:41.281Z,21.71
2023-05-01T15:06:09.693Z,22.71
2023-05-01T15:08:38.290Z,27.06
2023-05-01T15:11:18.795Z,25.36
2023-05-01T15:13:47.436Z,21.28
2023-05-01T15:16:15.067Z,20.76
2023-05-01T15:18:42.855Z,19.42
2023-05-01T15:21:13.112Z,20.71
2023-05-01T15:23:45.083Z,21.86
2023-05-01T15:26:12.769Z,22.13
2023-05-01T15:28:40.011Z,21.91
2023-05-01T15:31:07.109Z,21.49
2023-05-01T15:33:37.072Z,22.14
2023-05-01T15:36:05.231Z,21.11
2023-05-01T15:38:32.401Z,20.95
2023-05-01T15:40:59.464Z,21.10
2023-05-01T15:43:26.671Z,21.60
2023-05-01T15:45:57.674Z,21.86
2023-05-01T15:48:25.704Z,21.50
2023-05-01T15:50:56.386Z,22.33
2023-05-01T15:53:24.004Z,21.80
2023-05-01T15:55:51.576Z,21.78
2023-05-01T15:58:22.846Z,22.44
2023-05-01T16:00:50.336Z,22.32
2023-05-01T16:03:17.657Z,21.56
2023-05-01T16:05:47.142Z,22.43
2023-05-01T16:08:14.362Z,23.62
2023-05-01T16:10:41.413Z,23.84
2023-05-01T16:13:08.701Z,22.86
2023-05-01T16:15:37.929Z,23.50
2023-05-01T16:18:08.201Z,23.31
2023-05-01T16:20:42.816Z,24.02
2023-05-01T16:23:16.288Z,23.54
2023-05-01T16:25:44.799Z,23.72
2023-05-01T16:28:17.036Z,24.04
2023-05-01T16:30:45.661Z,23.62
2023-05-01T16:33:25.320Z,22.94
2023-05-01T16:35:52.750Z,24.25
2023-05-01T16:38:20.417Z,24.63
2023-05-01T16:40:48.247Z,25.01
2023-05-01T16:43:15.684Z,24.11
2023-05-01T16:45:42.736Z,22.81
2023-05-01T16:48:10.308Z,23.98
2023-05-01T16:50:41.564Z,23.70
2023-05-01T16:53:08.729Z,22.76
2023-05-01T16:55:35.828Z,22.08
2023-05-01T16:58:03.151Z,23.77
2023-05-01T17:00:31.400Z,24.53
2023-05-01T17:03:02.141Z,24.26
2023-05-01T17:05:29.382Z,24.96
2023-05-01T17:07:56.416Z,24.73
2023-05-01T17:10:23.482Z,27.23
2023-05-01T17:12:50.697Z,25.59
2023-05-01T17:15:18.220Z,25.64
2023-05-01T17:17:45.362Z,26.44
2023-05-01T17:20:13.987Z,25.92
2023-05-01T17:22:41.904Z,26.09
2023-05-01T17:25:09.542Z,26.13
2023-05-01T17:27:37.790Z,26.83
2023-05-01T17:30:06.137Z,26.52
2023-05-01T17:32:37.095Z,27.62
2023-05-01T17:35:06.272Z,27.86
2023-05-01T17:37:33.427Z,27.51
2023-05-01T17:40:01.246Z,28.45
2023-05-01T17:42:28.724Z,29.08
2023-05-01T17:44:55.840Z,28.85
2023-05-01T17:47:25.315Z,29.51
2023-05-01T17:49:53.162Z,29.44
2023-05-01T17:52:20.279Z,29.69
2023-05-01T17:54:47.343Z,30.88
2023-05-01T17:57:14.512Z,31.40
2023-05-01T17:59:41.731Z,31.47
2023-05-01T18:02:09.069Z,31.66
2023-05-01T18:04:38.254Z,33.17
2023-05-01T18:07:07.576Z,33.90
2023-05-01T18:09:34.896Z,36.81
2023-05-01T18:12:02.209Z,38.18
2023-05-01T18:14:29.528Z,38.97
2023-05-01T18:16:56.920Z,40.60
2023-05-01T18:19:24.048Z,41.46
2023-05-01T18:21:51.244Z,40.54
2023-05-01T18:24:18.387Z,41.02
2023-05-01T18:26:45.442Z,41.45
2023-05-01T18:29:14.085Z,37.63
2023-05-01T18:31:41.330Z,38.66
2023-05-01T18:34:10.144Z,39.49
2023-05-01T18:36:37.259Z,43.31
2023-05-01T18:39:04.539Z,46.62
2023-05-01T18:41:31.621Z,45.67
2023-05-01T18:44:01.219Z,46.34
2023-05-01T18:46:28.476Z,44.17
2023-05-01T18:48:55.681Z,42.30
2023-05-01T18:51:22.776Z,45.47
2023-05-01T18:53:52.203Z,44.53
2023-05-01T18:56:19.318Z,46.49
2023-05-01T18:58:46.377Z,46.33
2023-05-01T19:01:13.437Z,45.48
2023-05-01T19:03:40.576Z,41.79
2023-05-01T19:06:10.316Z,43.44
2023-05-01T19:08:37.739Z,44.45
2023-05-01T19:11:05.905Z,47.00
2023-05-01T19:13:34.027Z,44.03
2023-05-01T19:16:01.113Z,42.35
2023-05-01T19:18:48.404Z,44.27
2023-05-01T19:21:15.797Z,49.36
2023-05-01T19:23:43.131Z,50.30
2023-05-01T19:26:12.693Z,50.22
2023-05-01T19:28:42.208Z,51.77
2023-05-01T19:31:11.897Z,53.86
2023-05-01T19:33:40.192Z,54.10
2023-05-01T19:36:07.232Z,49.88
2023-05-01T19:38:34.577Z,52.37
2023-05-01T19:41:01.845Z,48.51
2023-05-01T19:43:28.858Z,49.68
2023-05-01T19:45:56.639Z,48.98
2023-05-01T19:48:23.787Z,50.46
2023-05-01T19:50:51.732Z,53.99
2023-05-01T19:53:22.285Z,55.02
2023-05-01T19:55:49.460Z,54.93
2023-05-01T19:58:16.591Z,52.17
2023-05-01T20:00:43.822Z,49.03
2023-05-01T20:03:11.000Z,48.10
2023-05-01T20:05:38.985Z,46.44
2023-05-01T20:08:06.158Z,44.95
2023-05-01T20:10:33.702Z,44.84
2023-05-01T20:13:08.855Z,45.10
2023-05-01T20:15:38.594Z,44.26
2023-05-01T20:18:06.842Z,43.64
2023-05-01T20:20:34.969Z,46.41
2023-05-01T20:23:13.844Z,45.10
2023-05-01T20:25:43.825Z,45.32
2023-05-01T20:28:14.052Z,45.06
2023-05-01T20:30:47.107Z,45.51
2023-05-01T20:33:14.859Z,46.60
2023-05-01T20:35:42.049Z,45.87
2023-05-01T20:38:09.187Z,44.65
2023-05-01T20:40:40.721Z,44.86
2023-05-01T20:43:07.918Z,43.43
2023-05-01T20:45:39.458Z,44.27
2023-05-01T20:48:07.424Z,42.35
2023-05-01T20:50:35.654Z,41.82
2023-05-01T20:53:03.930Z,43.92
2023-05-01T20:55:32.277Z,52.79
2023-05-01T20:57:59.327Z,56.29
2023-05-01T21:00:26.561Z,55.81
2023-05-01T21:02:53.871Z,57.85
2023-05-01T21:05:21.075Z,58.45
2023-05-01T21:07:48.284Z,56.35
2023-05-01T21:10:21.138Z,55.21
2023-05-01T21:12:48.151Z,54.85
2023-05-01T21:15:15.461Z,53.39
2023-05-01T21:17:46.833Z,53.88
2023-05-01T21:20:33.975Z,56.19
2023-05-01T21:23:01.994Z,56.70
2023-05-01T21:25:31.951Z,59.45
2023-05-01T21:28:05.014Z,61.76
2023-05-01T21:30:35.675Z,59.77
2023-05-01T21:33:14.288Z,58.26
2023-05-01T21:35:44.388Z,57.10
2023-05-01T21:38:11.936Z,59.18
2023-05-01T21:40:42.631Z,58.62
2023-05-01T21:43:12.163Z,55.92
2023-05-01T21:45:44.278Z,54.85
2023-05-01T21:48:15.868Z,53.24
2023-05-01T21:50:43.063Z,52.49
2023-05-01T21:53:10.184Z,53.58
2023-05-01T21:55:38.630Z,51.67
2023-05-01T21:58:05.753Z,51.03
2023-05-01T22:00:33.498Z,49.82
2023-05-01T22:03:04.225Z,48.58
2023-05-01T22:05:33.057Z,48.06
2023-05-01T22:08:00.445Z,48.41
2023-05-01T22:10:28.533Z,49.46
2023-05-01T22:12:55.630Z,49.14
2023-05-01T22:15:22.703Z,51.08
2023-05-01T22:17:49.958Z,54.79
2023-05-01T22:20:17.158Z,54.89
2023-05-01T22:22:44.921Z,52.53
2023-05-01T22:25:12.127Z,50.27
2023-05-01T22:27:39.280Z,49.52
2023-05-01T22:30:07.357Z,50.07
2023-05-01T22:32:34.700Z,50.25
2023-05-01T22:35:02.164Z,48.99
2023-05-01T22:37:29.506Z,49.29
2023-05-01T22:39:56.827Z,48.63
2023-05-01T22:42:24.174Z,48.00
2023-05-01T22:44:51.265Z,48.33
2023-05-01T22:47:18.303Z,49.02
2023-05-01T22:49:47.663Z,48.98
2023-05-01T22:52:16.363Z,48.26
2023-05-01T22:54:43.977Z,48.47
2023-05-01T22:57:11.084Z,47.49
2023-05-01T22:59:40.292Z,47.76
2023-05-01T23:02:07.537Z,48.23
2023-05-01T23:04:34.627Z,49.33
2023-05-01T23:07:01.729Z,49.56
2023-05-01T23:09:32.094Z,53.15
2023-05-01T23:11:59.500Z,52.64
2023-05-01T23:14:26.626Z,51.74
2023-05-01T23:16:53.909Z,52.78
2023-05-01T23:19:25.333Z,53.18
2023-05-01T23:22:08.832Z,54.90
2023-05-01T23:24:50.749Z,57.27
2023-05-01T23:27:22.516Z,59.75
2023-05-01T23:29:58.709Z,61.10
2023-05-01T23:32:31.838Z,58.16
2023-05-01T23:35:14.669Z,56.23
2023-05-01T23:37:42.780Z,53.12
2023-05-01T23:40:10.483Z,52.76
2023-05-01T23:42:39.504Z,51.84
2023-05-01T23:45:08.147Z,50.80
2023-05-01T23:47:36.018Z,51.72
2023-05-01T23:50:03.629Z,53.21
2023-05-01T23:52:31.550Z,53.98
2023-05-01T23:54:58.627Z,54.41
2023-05-01T23:57:26.069Z,53.77
2023-05-01T23:59:53.136Z,52.13
